地図

経路データ

SID SEASON NUMBER BASIN SUBBASIN NAME ISO_TIME NATURE LAT LON WMO_WIND WMO_PRES WMO_AGENCY TRACK_TYPE DIST2LAND LANDFALL IFLAG USA_AGENCY USA_ATCF_ID USA_LAT USA_LON USA_RECORD USA_STATUS USA_WIND USA_PRES USA_SSHS USA_R34_NE USA_R34_SE USA_R34_SW USA_R34_NW USA_R50_NE USA_R50_SE USA_R50_SW USA_R50_NW USA_R64_NE USA_R64_SE USA_R64_SW USA_R64_NW USA_POCI USA_ROCI USA_RMW USA_EYE TOKYO_LAT TOKYO_LON TOKYO_GRADE TOKYO_WIND TOKYO_PRES TOKYO_R50_DIR TOKYO_R50_LONG TOKYO_R50_SHORT TOKYO_R30_DIR TOKYO_R30_LONG TOKYO_R30_SHORT TOKYO_LAND CMA_LAT CMA_LON CMA_CAT CMA_WIND CMA_PRES HKO_LAT HKO_LON HKO_CAT HKO_WIND HKO_PRES NEWDELHI_LAT NEWDELHI_LON NEWDELHI_GRADE NEWDELHI_WIND NEWDELHI_PRES NEWDELHI_CI NEWDELHI_DP NEWDELHI_POCI REUNION_LAT REUNION_LON REUNION_TYPE REUNION_WIND REUNION_PRES REUNION_TNUM REUNION_CI REUNION_RMW REUNION_R34_NE REUNION_R34_SE REUNION_R34_SW REUNION_R34_NW REUNION_R50_NE REUNION_R50_SE REUNION_R50_SW REUNION_R50_NW REUNION_R64_NE REUNION_R64_SE REUNION_R64_SW REUNION_R64_NW BOM_LAT BOM_LON BOM_TYPE BOM_WIND BOM_PRES BOM_TNUM BOM_CI BOM_RMW BOM_R34_NE BOM_R34_SE BOM_R34_SW BOM_R34_NW BOM_R50_NE BOM_R50_SE BOM_R50_SW BOM_R50_NW BOM_R64_NE BOM_R64_SE BOM_R64_SW BOM_R64_NW BOM_ROCI BOM_POCI BOM_EYE BOM_POS_METHOD BOM_PRES_METHOD NADI_LAT NADI_LON NADI_CAT NADI_WIND NADI_PRES WELLINGTON_LAT WELLINGTON_LON WELLINGTON_WIND WELLINGTON_PRES DS824_LAT DS824_LON DS824_STAGE DS824_WIND DS824_PRES TD9636_LAT TD9636_LON TD9636_STAGE TD9636_WIND TD9636_PRES TD9635_LAT TD9635_LON TD9635_WIND TD9635_PRES TD9635_ROCI NEUMANN_LAT NEUMANN_LON NEUMANN_CLASS NEUMANN_WIND NEUMANN_PRES MLC_LAT MLC_LON MLC_CLASS MLC_WIND MLC_PRES USA_GUST BOM_GUST BOM_GUST_PER REUNION_GUST REUNION_GUST_PER USA_SEAHGT USA_SEARAD_NE USA_SEARAD_SE USA_SEARAD_SW USA_SEARAD_NW STORM_SPEED STORM_DIR
1967086S13161 1967 26 SP MM NOT_NAMED 1967-03-27 00:00:00 TS -12.9000 161.000 main 250 244 O________OO___ jtwc_sh SH271967 -12.9000 161.000 -1 -12.9000 161.000 TC -12.9000 161.000 1 15 105
1967086S13161 1967 26 SP MM NOT_NAMED 1967-03-27 03:00:00 TS -13.0942 161.760 main 257 257 P________PP___ SH271967 -13.0755 161.772 -1 -13.0755 161.772 TC -13.1316 161.735 1 15 106
1967086S13161 1967 26 SP MM NOT_NAMED 1967-03-27 06:00:00 TS -13.3266 162.482 main 280 280 O________OP___ jtwc_sh SH271967 -13.3000 162.500 -1 -13.3000 162.500 TC -13.3797 162.447 1 14 112
1967086S13161 1967 26 SP MM NOT_NAMED 1967-03-27 09:00:00 TS -13.6292 163.133 main 325 314 P________PP___ SH271967 -13.6123 163.145 -1 -13.6123 163.145 TC -13.6628 163.110 1 14 120
1967086S13161 1967 26 SP MM NOT_NAMED 1967-03-27 12:00:00 TS -14.0000 163.700 main 314 251 O________OO___ jtwc_sh SH271967 -14.0000 163.700 -1 -14.0000 163.700 TC -14.0000 163.700 1 13 127
1967086S13161 1967 26 SP MM NOT_NAMED 1967-03-27 15:00:00 TS -14.4198 164.205 main 251 204 P________PP___ SH271967 -14.4274 164.210 -1 -14.4274 164.210 TC -14.4046 164.194 1 12 136
1967086S13161 1967 26 SP MM NOT_NAMED 1967-03-27 18:00:00 TS -14.8889 164.594 main 204 180 O________OP___ jtwc_sh SH271967 -14.9000 164.600 -1 -14.9000 164.600 TC -14.8667 164.581 1 12 146
1967086S13161 1967 26 SP MM NOT_NAMED 1967-03-27 21:00:00 TS -15.3801 164.873 main 182 172 P________PP___ SH271967 -15.3849 164.882 -1 -15.3849 164.882 TC -15.3705 164.853 1 11 159
1967086S13161 1967 26 SP MM NOT_NAMED 1967-03-28 00:00:00 TS -15.9000 165.000 main 180 180 O________OO___ jtwc_sh SH271967 -15.9000 165.000 -1 -15.9000 165.000 TC -15.9000 165.000 1 11 175
1967086S13161 1967 26 SP MM NOT_NAMED 1967-03-28 03:00:00 TS -16.4445 164.974 main 204 204 P________PP___ SH271967 -16.4425 164.945 -1 -16.4425 164.945 TC -16.4484 165.032 1 11 188
1967086S13161 1967 26 SP MM NOT_NAMED 1967-03-28 06:00:00 TS -17.0049 164.848 main 258 258 O________OP___ jtwc_sh SH271967 -17.0000 164.800 -1 -17.0000 164.800 TC -17.0147 164.944 1 12 192
1967086S13161 1967 26 SP MM NOT_NAMED 1967-03-28 09:00:00 TS -17.5679 164.733 main 297 240 P________PP___ SH271967 -17.5650 164.707 -1 -17.5650 164.707 TC -17.5736 164.784 1 11 192
1967086S13161 1967 26 SP MM NOT_NAMED 1967-03-28 12:00:00 TS -18.1000 164.600 main 240 194 O________OO___ jtwc_sh SH271967 -18.1000 164.600 -1 -18.1000 164.600 TC -18.1000 164.600 1 10 194
1967086S13161 1967 26 SP MM NOT_NAMED 1967-03-28 15:00:00 TS -18.5618 164.472 main 183 135 P________PP___ SH271967 -18.5725 164.457 -1 -18.5725 164.457 TC -18.5403 164.500 1 9 196
1967086S13161 1967 26 SP MM NOT_NAMED 1967-03-28 18:00:00 TS -18.9832 164.327 main 135 90 O________OP___ jtwc_sh SH271967 -19.0000 164.300 -1 -19.0000 164.300 TC -18.9495 164.381 1 9 198
1967086S13161 1967 26 SP MM NOT_NAMED 1967-03-28 21:00:00 TS -19.3763 164.189 main 90 45 P________PP___ SH271967 -19.3849 164.172 -1 -19.3849 164.172 TC -19.3589 164.221 1 9 201
1967086S13161 1967 26 SP MM NOT_NAMED 1967-03-29 00:00:00 TS -19.8000 164.000 main 45 20 O________OO___ jtwc_sh SH271967 -19.8000 164.000 -1 -19.8000 164.000 TC -19.8000 164.000 1 11 203
1967086S13161 1967 26 SP MM NOT_NAMED 1967-03-29 03:00:00 TS -20.3525 163.746 main 33 33 P________PP___ SH271967 -20.3274 163.745 -1 -20.3274 163.745 TC -20.4025 163.748 1 13 206
1967086S13161 1967 26 SP MM NOT_NAMED 1967-03-29 06:00:00 TS -20.9420 163.408 main 91 91 O________OP___ jtwc_sh SH271967 -20.9000 163.400 -1 -20.9000 163.400 TC -21.0260 163.425 1 14 210
1967086S13161 1967 26 SP MM NOT_NAMED 1967-03-29 09:00:00 TS -21.5503 163.012 main 170 170 P________PP___ SH271967 -21.5322 163.011 -1 -21.5322 163.011 TC -21.5864 163.014 1 14 219
1967086S13161 1967 26 SP MM NOT_NAMED 1967-03-29 12:00:00 TS -22.0000 162.500 main 238 238 O________OO___ jtwc_sh SH271967 -22.0000 162.500 -1 -22.0000 162.500 TC -22.0000 162.500 1 12 245
1967086S13161 1967 26 SP MM NOT_NAMED 1967-03-29 15:00:00 TS -22.0777 161.814 main 304 304 P________PP___ SH271967 -22.0825 161.844 -1 -22.0825 161.844 TC -22.0681 161.754 1 13 270
1967086S13161 1967 26 SP MM NOT_NAMED 1967-03-29 18:00:00 TS -21.9991 161.044 main 364 364 O________OP___ jtwc_sh SH271967 -22.0000 161.100 -1 -22.0000 161.100 TC -21.9973 160.932 1 15 276
1967086S13161 1967 26 SP MM NOT_NAMED 1967-03-29 21:00:00 TS -21.9212 160.240 main 432 432 P________PP___ SH271967 -21.9181 160.274 -1 -21.9181 160.274 TC -21.9273 160.170 1 13 270
1967086S13161 1967 26 SP EA NOT_NAMED 1967-03-30 00:00:00 TS -22.0000 159.600 main 494 494 O________OO___ jtwc_sh SH271967 -22.0000 159.600 -1 -22.0000 159.600 TC -22.0000 159.600 1 10 240
1967086S13161 1967 26 SP EA NOT_NAMED 1967-03-30 03:00:00 TS -22.4500 159.271 main 545 545 P________PP___ SH271967 -22.4594 159.258 -1 -22.4594 159.258 TC -22.4312 159.296 1 11 199
1967086S13161 1967 26 SP EA NOT_NAMED 1967-03-30 06:00:00 TS -23.0729 159.202 main 586 586 O________OP___ jtwc_sh SH271967 -23.1000 159.200 -1 -23.1000 159.200 TC -23.0188 159.205 1 13 178
1967086S13161 1967 26 SP EA NOT_NAMED 1967-03-30 09:00:00 TS -23.7006 159.305 main 614 611 P________PP___ SH271967 -23.7148 159.302 -1 -23.7148 159.302 TC -23.6721 159.312 1 13 163
1967086S13161 1967 26 SP EA NOT_NAMED 1967-03-30 12:00:00 TS -24.3000 159.600 main 629 626 O________OO___ jtwc_sh SH271967 -24.3000 159.600 -1 -24.3000 159.600 TC -24.3000 159.600 1 13 150
1967086S13161 1967 26 SP EA NOT_NAMED 1967-03-30 15:00:00 TS -24.7966 159.996 main 628 618 P________PP___ SH271967 -24.7796 159.968 -1 -24.7796 159.968 TC -24.8307 160.051 1 13 137
1967086S13161 1967 26 SP MM NOT_NAMED 1967-03-30 18:00:00 TS -25.2241 160.543 main 618 600 O________OP___ jtwc_sh SH271967 -25.2000 160.500 -1 -25.2000 160.500 TC -25.2722 160.628 1 14 126
1967086S13161 1967 26 SP MM NOT_NAMED 1967-03-30 21:00:00 TS -25.6199 161.231 main 602 588 P________PP___ SH271967 -25.6036 161.201 -1 -25.6036 161.201 TC -25.6524 161.292 1 15 121
1967086S13161 1967 26 SP MM NOT_NAMED 1967-03-31 00:00:00 TS -26.0000 162.000 main 592 O________OO___ jtwc_sh SH271967 -26.0000 162.000 -1 -26.0000 162.000 TC -26.0000 162.000 1 16 119

デジタル台風データ・検索

IBTrACS Databaseについて

本データベースは、米国NOAAが公開する1842年以降の世界の熱帯低気圧のベストトラックデータアーカイブInternational Best Track Archive for Climate Stewardship (IBTrACS)を、ウェブで閲覧しやすい形式に変換したものです。

最終更新日:2021-10-27